createdAt,value
2024-01-03T00:00:16.723Z,24.456753
2024-01-03T00:05:16.593Z,24.359704
2024-01-03T00:10:16.669Z,24.668294
2024-01-03T00:15:16.770Z,24.668294
2024-01-03T00:20:16.772Z,24.473909
2024-01-03T00:25:16.728Z,23.971501
2024-01-03T00:30:16.666Z,24.182326
2024-01-03T00:35:16.893Z,24.182326
2024-01-03T00:40:16.668Z,24.182326
2024-01-03T00:45:16.720Z,24.182326
2024-01-03T00:50:16.735Z,24.182326
2024-01-03T00:55:16.755Z,24.486725
2024-01-03T01:00:16.841Z,24.389388
2024-01-03T01:05:16.982Z,24.194714
2024-01-03T01:10:16.902Z,24.097376
2024-01-03T01:15:16.759Z,23.902697
2024-01-03T01:20:16.780Z,24.000037
2024-01-03T01:25:16.903Z,23.902697
2024-01-03T01:30:16.898Z,23.902697
2024-01-03T01:35:16.912Z,24.000037
2024-01-03T01:40:16.863Z,24.000037
2024-01-03T01:45:17.037Z,24.000037
2024-01-03T01:50:17.154Z,24.194714
2024-01-03T01:55:16.910Z,24.292052
2024-01-03T02:00:16.992Z,24.182326
2024-01-03T02:05:17.142Z,24.182326
2024-01-03T02:10:17.073Z,24.279521
2024-01-03T02:15:17.026Z,24.279521
2024-01-03T02:20:17.285Z,24.376715
2024-01-03T02:25:16.987Z,24.473909
2024-01-03T02:30:17.252Z,24.876064
2024-01-03T02:35:18.174Z,24.778730
2024-01-03T02:40:16.935Z,24.778730
2024-01-03T02:45:17.235Z,24.681396
2024-01-03T02:50:17.499Z,24.778730
2024-01-03T02:55:17.197Z,24.681396
2024-01-03T03:00:17.170Z,24.681396
2024-01-03T03:05:17.196Z,24.778730
2024-01-03T03:10:17.143Z,24.584061
2024-01-03T03:15:17.320Z,24.584061
2024-01-03T03:20:17.142Z,24.486725
2024-01-03T03:25:17.819Z,24.584061
2024-01-03T03:30:17.114Z,24.584061
2024-01-03T03:35:17.118Z,24.681396
2024-01-03T03:40:17.111Z,24.584061
2024-01-03T03:45:17.132Z,24.389388
2024-01-03T03:50:17.031Z,24.292052
2024-01-03T03:55:17.523Z,24.194714
2024-01-03T04:00:17.127Z,24.097376
2024-01-03T04:05:17.287Z,24.000037
2024-01-03T04:10:17.181Z,23.902697
2024-01-03T04:15:17.149Z,23.902697
2024-01-03T04:20:17.314Z,23.902697
2024-01-03T04:25:17.190Z,24.202864
2024-01-03T04:30:17.194Z,24.202864
2024-01-03T04:35:17.291Z,24.202864
2024-01-03T04:40:17.206Z,24.202864
2024-01-03T04:45:17.354Z,24.300343
2024-01-03T04:50:17.436Z,24.300343
2024-01-03T04:55:17.277Z,24.007905
2024-01-03T05:00:16.332Z,23.910425
2024-01-03T05:05:16.621Z,23.812944
2024-01-03T05:10:16.396Z,23.617980
2024-01-03T05:15:16.324Z,23.914013
2024-01-03T05:20:16.380Z,23.816393
2024-01-03T05:25:16.369Z,23.520497
2024-01-03T05:30:16.545Z,23.423014
2024-01-03T05:35:16.580Z,23.423014
2024-01-03T05:40:16.447Z,23.423014
2024-01-03T05:45:16.365Z,23.617980
2024-01-03T05:50:16.977Z,23.617980
2024-01-03T05:55:16.471Z,23.812944
2024-01-03T06:00:16.645Z,23.910425
2024-01-03T06:05:16.859Z,24.105385
2024-01-03T06:10:16.386Z,24.202864
2024-01-03T06:15:16.457Z,24.397821
2024-01-03T06:20:16.453Z,24.194714
2024-01-03T06:25:16.492Z,24.389388
2024-01-03T06:30:16.835Z,24.292052
2024-01-03T06:35:16.451Z,24.787728
2024-01-03T06:40:16.487Z,24.787728
2024-01-03T06:45:16.508Z,24.885203
2024-01-03T06:50:16.669Z,24.885203
2024-01-03T06:55:16.621Z,24.787728
2024-01-03T07:00:16.470Z,24.787728
2024-01-03T07:05:16.753Z,24.787728
2024-01-03T07:10:16.572Z,24.885203
2024-01-03T07:15:16.597Z,24.982678
2024-01-03T07:20:16.768Z,25.378253
2024-01-03T07:25:16.733Z,25.671086
2024-01-03T07:30:16.726Z,26.061523
2024-01-03T07:35:16.793Z,25.957392
2024-01-03T07:40:16.630Z,26.054861
2024-01-03T07:45:16.605Z,26.451951
2024-01-03T07:50:16.742Z,26.347262
2024-01-03T07:55:16.595Z,26.444728
2024-01-03T08:00:16.708Z,26.639658
2024-01-03T08:05:16.780Z,26.639658
2024-01-03T08:10:16.679Z,26.347262
2024-01-03T08:15:16.744Z,26.647161
2024-01-03T08:20:16.948Z,26.744766
2024-01-03T08:25:16.731Z,26.744766
2024-01-03T08:30:16.778Z,26.744766
2024-01-03T08:35:16.739Z,26.451951
2024-01-03T08:40:16.772Z,26.256738
2024-01-03T08:45:16.753Z,26.061523
2024-01-03T08:50:16.872Z,26.061523
2024-01-03T08:55:16.791Z,26.256738
2024-01-03T09:00:16.756Z,26.256738
2024-01-03T09:05:17.059Z,26.256738
2024-01-03T09:10:16.779Z,26.354344
2024-01-03T09:15:16.867Z,26.354344
2024-01-03T09:20:16.827Z,26.451951
2024-01-03T09:25:16.876Z,26.354344
2024-01-03T09:30:17.088Z,26.650571
2024-01-03T09:35:16.903Z,26.552828
2024-01-03T09:40:17.067Z,26.943616
2024-01-03T09:45:17.018Z,27.139373
2024-01-03T09:50:16.886Z,26.846057
2024-01-03T09:55:16.883Z,26.647161
2024-01-03T10:00:16.965Z,26.549556
2024-01-03T10:05:17.025Z,26.744766
2024-01-03T10:10:16.925Z,26.943799
2024-01-03T10:15:16.953Z,27.041541
2024-01-03T10:20:17.027Z,27.041541
2024-01-03T10:25:16.919Z,27.041541
2024-01-03T10:30:17.126Z,27.139282
2024-01-03T10:35:17.102Z,27.237022
2024-01-03T10:40:17.779Z,27.237022
2024-01-03T10:45:17.028Z,27.432502
2024-01-03T10:50:17.015Z,27.530241
2024-01-03T10:55:17.060Z,27.627979
2024-01-03T11:00:17.072Z,27.922382
2024-01-03T11:05:17.281Z,28.020256
2024-01-03T11:10:17.088Z,28.118129
2024-01-03T11:15:17.161Z,28.216002
2024-01-03T11:20:17.161Z,28.703698
2024-01-03T11:25:17.304Z,28.705359
2024-01-03T11:30:17.219Z,28.605335
2024-01-03T11:35:17.107Z,28.703068
2024-01-03T11:40:17.146Z,28.703068
2024-01-03T11:45:17.817Z,28.605335
2024-01-03T11:50:17.548Z,28.509618
2024-01-03T11:55:17.218Z,27.725717
2024-01-03T12:00:17.216Z,27.139282
2024-01-03T12:05:17.778Z,26.846057
2024-01-03T12:10:17.368Z,26.943616
2024-01-03T12:15:17.191Z,26.943616
2024-01-03T12:20:17.321Z,27.135537
2024-01-03T12:25:17.179Z,26.845737
2024-01-03T12:30:17.397Z,26.552096
2024-01-03T12:35:17.232Z,26.356333
2024-01-03T12:40:17.245Z,26.160568
2024-01-03T12:45:18.047Z,26.351412
2024-01-03T12:50:17.282Z,26.253394
2024-01-03T12:55:17.231Z,26.351412
2024-01-03T13:00:17.423Z,26.931559
2024-01-03T13:05:17.593Z,27.324151
2024-01-03T13:10:17.530Z,27.716736
2024-01-03T13:15:17.405Z,27.527588
2024-01-03T13:20:17.333Z,27.527588
2024-01-03T13:25:17.493Z,27.237251
2024-01-03T13:30:17.578Z,27.139373
2024-01-03T13:35:17.898Z,27.139373
2024-01-03T13:40:18.100Z,26.846057
2024-01-03T13:45:17.524Z,27.041541
2024-01-03T13:50:17.505Z,27.139282
2024-01-03T13:55:17.473Z,27.139282
2024-01-03T14:00:17.401Z,27.334762
2024-01-03T14:05:15.612Z,28.020256
2024-01-03T14:10:15.526Z,28.607489
2024-01-03T14:15:15.769Z,29.096836
2024-01-03T14:20:15.471Z,29.191724
2024-01-03T14:25:15.425Z,29.087108
2024-01-03T14:30:15.600Z,28.768919
2024-01-03T14:35:15.577Z,29.158151
2024-01-03T14:40:15.551Z,29.352763
2024-01-03T14:45:16.004Z,29.332764
2024-01-03T14:50:15.555Z,28.988785
2024-01-03T14:55:15.508Z,29.279389
2024-01-03T15:00:15.732Z,29.666851
2024-01-03T15:05:15.577Z,29.826094
2024-01-03T15:10:15.547Z,29.786854
2024-01-03T15:15:15.642Z,29.646335
2024-01-03T15:20:15.634Z,29.979974
2024-01-03T15:25:15.583Z,29.979974
2024-01-03T15:30:15.983Z,29.979974
2024-01-03T15:35:15.604Z,30.173092
2024-01-03T15:40:17.731Z,30.031961
2024-01-03T15:45:15.700Z,29.789892
2024-01-03T15:50:15.775Z,29.982393
2024-01-03T15:55:15.832Z,30.174890
2024-01-03T16:00:15.812Z,29.927703
2024-01-03T16:05:15.723Z,30.119885
2024-01-03T16:10:15.716Z,29.867763
2024-01-03T16:15:15.852Z,30.408152
2024-01-03T16:20:15.743Z,30.504239
2024-01-03T16:25:15.802Z,30.504239
2024-01-03T16:30:16.180Z,30.251485
2024-01-03T16:35:15.750Z,30.251485
2024-01-03T16:40:15.805Z,29.993977
2024-01-03T16:45:15.792Z,30.185513
2024-01-03T16:50:16.018Z,30.731117
2024-01-03T16:55:15.808Z,30.472809
2024-01-03T17:00:16.057Z,30.114007
2024-01-03T17:05:15.894Z,30.664335
2024-01-03T17:10:15.845Z,30.760097
2024-01-03T17:15:16.035Z,29.941383
2024-01-03T17:20:15.853Z,29.845945
2024-01-03T17:25:15.869Z,29.845945
2024-01-03T17:30:16.423Z,30.209609
2024-01-03T17:35:15.770Z,30.209609
2024-01-03T17:40:15.925Z,30.114007
2024-01-03T17:45:17.353Z,30.018404
2024-01-03T17:50:15.941Z,30.018404
2024-01-03T17:55:15.989Z,30.377045
2024-01-03T18:00:15.908Z,30.472809
2024-01-03T18:05:16.018Z,30.377045
2024-01-03T18:10:15.990Z,30.827040
2024-01-03T18:15:15.934Z,30.472809
2024-01-03T18:20:16.034Z,31.018885
2024-01-03T18:25:16.466Z,30.855857
2024-01-03T18:30:16.148Z,30.951617
2024-01-03T18:35:16.110Z,31.047376
2024-01-03T18:40:16.275Z,31.306645
2024-01-03T18:45:16.220Z,31.306645
2024-01-03T18:50:16.089Z,31.018885
2024-01-03T18:55:16.100Z,31.018885
2024-01-03T19:00:16.247Z,31.018885
2024-01-03T19:05:16.766Z,31.368983
2024-01-03T19:10:16.315Z,31.018885
2024-01-03T19:15:16.292Z,30.922963
2024-01-03T19:20:16.172Z,31.176823
2024-01-03T19:25:16.661Z,31.080743
2024-01-03T19:30:16.253Z,31.080743
2024-01-03T19:35:16.131Z,31.176823
2024-01-03T19:40:16.205Z,31.176823
2024-01-03T19:45:18.984Z,31.176823
2024-01-03T19:50:16.192Z,31.080743
2024-01-03T19:55:16.299Z,31.176823
2024-01-03T20:00:16.334Z,31.522276
2024-01-03T20:05:17.436Z,31.080743
2024-01-03T20:10:16.215Z,31.426040
2024-01-03T20:15:16.473Z,30.984661
2024-01-03T20:20:16.464Z,31.426040
2024-01-03T20:25:16.276Z,31.329803
2024-01-03T20:30:16.331Z,31.233565
2024-01-03T20:35:16.355Z,31.137326
2024-01-03T20:40:16.420Z,31.041086
2024-01-03T20:45:16.374Z,31.285159
2024-01-03T20:50:16.374Z,31.188764
2024-01-03T20:55:16.318Z,31.428280
2024-01-03T21:00:16.622Z,31.428280
2024-01-03T21:05:16.610Z,31.760202
2024-01-03T21:10:16.509Z,31.760202
2024-01-03T21:15:17.173Z,31.760202
2024-01-03T21:20:16.385Z,31.663504
2024-01-03T21:25:16.534Z,31.663504
2024-01-03T21:30:16.627Z,31.894539
2024-01-03T21:35:16.481Z,31.894539
2024-01-03T21:40:16.487Z,31.894539
2024-01-03T21:45:16.444Z,31.894539
2024-01-03T21:50:16.514Z,31.894539
2024-01-03T21:55:16.502Z,31.894539
2024-01-03T22:00:17.046Z,32.121487
2024-01-03T22:05:16.613Z,32.121487
2024-01-03T22:10:16.440Z,32.121487
2024-01-03T22:15:16.598Z,32.121487
2024-01-03T22:20:17.160Z,32.121487
2024-01-03T22:25:16.730Z,31.927495
2024-01-03T22:30:16.601Z,31.955876
2024-01-03T22:35:16.642Z,31.761588
2024-01-03T22:40:16.541Z,31.664443
2024-01-03T22:45:16.646Z,31.664443
2024-01-03T22:50:16.932Z,31.664443
2024-01-03T22:55:16.713Z,31.979786
2024-01-03T23:00:16.815Z,31.979786
2024-01-03T23:05:16.707Z,31.785207
2024-01-03T23:10:16.665Z,31.785207
2024-01-03T23:15:16.746Z,31.785207
2024-01-03T23:20:16.926Z,31.590626
2024-01-03T23:25:16.703Z,31.804459
2024-01-03T23:30:16.764Z,31.707025
2024-01-03T23:35:16.740Z,31.609591
2024-01-03T23:40:17.898Z,31.917015
2024-01-03T23:45:16.758Z,31.917015
2024-01-03T23:50:16.666Z,31.819440
2024-01-03T23:55:16.822Z,31.819440
